Time;durP1;ratioP1;P1;durP2;ratioP2;P2;SDS_P1;SDS_P2;PMS_P1;PMS_P2;Temp;Humidity;BMP_temperature;BMP_pressure;BME280_temperature;BME280_humidity;BME280_pressure;Samples;Min_cycle;Max_cycle;Signal;HPM_P1;HPM_P2
2021/11/09 00:00:57;;;;;;;21.65;6.22;;;8.40;99.90;;;9.21;97.65;101471.63;5069518;28;20025;-86
2021/11/09 00:03:23;;;;;;;20.40;6.50;;;8.30;99.90;;;9.15;97.40;101458.19;5084860;28;20046;-84
2021/11/09 00:05:55;;;;;;;29.35;6.57;;;8.20;99.90;;;9.06;98.35;101460.13;5067396;28;20028;-86
2021/11/09 00:08:25;;;;;;;24.38;7.63;;;8.10;99.90;;;8.97;97.92;101463.75;5069208;28;20036;-84
2021/11/09 00:10:52;;;;;;;23.50;6.75;;;8.00;99.90;;;8.88;98.30;101453.75;5067839;28;20021;-86
2021/11/09 00:13:20;;;;;;;22.30;7.10;;;7.90;99.90;;;8.77;98.46;101458.00;5083683;28;20171;-86
2021/11/09 00:15:48;;;;;;;23.80;6.30;;;7.80;99.90;;;8.66;99.50;101451.13;5067541;28;20492;-84
2021/11/09 00:18:15;;;;;;;21.13;5.90;;;7.70;99.90;;;8.58;100.00;101457.47;5084951;28;20039;-87
2021/11/09 00:20:42;;;;;;;21.17;6.85;;;7.60;99.90;;;8.50;100.00;101461.91;5069046;28;20028;-85
2021/11/09 00:23:11;;;;;;;19.70;6.63;;;7.50;99.90;;;8.42;100.00;101460.75;5070885;28;20554;-83
2021/11/09 00:25:40;;;;;;;20.95;6.38;;;7.50;99.90;;;8.35;100.00;101462.34;5069374;28;20036;-84
2021/11/09 00:28:10;;;;;;;15.45;6.20;;;7.40;99.90;;;8.24;100.00;101461.81;5085247;28;20028;-84
2021/11/09 00:30:38;;;;;;;16.88;5.63;;;7.30;99.90;;;8.15;100.00;101474.06;5069828;28;20039;-83
2021/11/09 00:33:06;;;;;;;30.08;7.10;;;7.20;99.90;;;8.06;100.00;101467.66;5084732;28;20070;-85
2021/11/09 00:35:34;;;;;;;24.67;6.07;;;7.10;99.90;;;7.95;100.00;101465.16;5067267;28;20032;-85
2021/11/09 00:38:07;;;;;;;25.05;7.43;;;7.00;99.90;;;7.89;100.00;101471.16;5068216;28;20034;-82
2021/11/09 00:40:38;;;;;;;22.10;6.22;;;7.00;99.90;;;7.87;100.00;101470.66;5087050;28;20028;-84
2021/11/09 00:43:09;;;;;;;22.65;6.57;;;7.00;99.90;;;7.83;100.00;101475.25;5068719;28;20028;-84
2021/11/09 00:45:36;;;;;;;24.45;7.55;;;7.00;99.90;;;7.80;100.00;101475.88;5084885;28;20028;-86
2021/11/09 00:48:03;;;;;;;25.33;6.78;;;6.90;99.90;;;7.77;100.00;101474.53;5066751;28;20040;-85
2021/11/09 00:50:32;;;;;;;22.90;6.40;;;6.80;99.90;;;7.70;100.00;101467.81;5066554;28;20047;-83
2021/11/09 00:52:59;;;;;;;22.58;6.38;;;6.70;99.90;;;7.64;100.00;101477.44;5084230;28;20059;-84
2021/11/09 00:55:28;;;;;;;24.48;6.80;;;6.70;99.90;;;7.53;100.00;101487.16;5066568;28;20107;-84
2021/11/09 00:57:54;;;;;;;27.60;6.75;;;6.70;99.90;;;7.42;100.00;101481.84;5086498;28;20106;-85
2021/11/09 01:00:28;;;;;;;23.27;6.63;;;6.50;99.90;;;7.34;100.00;101490.13;5067336;28;20020;-86
2021/11/09 01:02:59;;;;;;;22.75;6.57;;;6.40;99.90;;;7.30;100.00;101486.34;5068326;28;20060;-85
2021/11/09 01:05:28;;;;;;;22.13;6.72;;;6.30;99.90;;;7.33;100.00;101488.50;5066753;28;20032;-84
2021/11/09 01:08:02;;;;;;;22.58;6.18;;;6.30;99.90;;;7.29;100.00;101487.47;5074053;28;20032;-86
2021/11/09 01:10:39;;;;;;;21.38;6.85;;;6.40;99.90;;;7.13;100.00;101486.19;5053297;28;20037;-84
2021/11/09 01:13:06;;;;;;;28.63;7.53;;;6.20;99.90;;;7.00;100.00;101489.88;5048705;28;20097;-86
2021/11/09 01:15:36;;;;;;;20.73;6.72;;;6.10;99.90;;;6.92;100.00;101487.84;5064474;28;20044;-85
2021/11/09 01:18:04;;;;;;;20.17;6.25;;;6.00;99.90;;;6.80;100.00;101493.94;5063331;28;20021;-86
2021/11/09 01:20:31;;;;;;;16.05;6.20;;;6.00;99.90;;;6.74;100.00;101495.19;5063096;28;20070;-84
2021/11/09 01:22:59;;;;;;;26.48;6.78;;;5.80;99.90;;;6.67;100.00;101487.31;5064103;28;20432;-85
2021/11/09 01:25:29;;;;;;;18.83;6.85;;;5.70;99.90;;;6.58;100.00;101486.38;5048045;28;20035;-86
2021/11/09 01:28:00;;;;;;;22.90;7.20;;;5.70;99.90;;;6.53;100.00;101494.00;5063294;28;20071;-83
2021/11/09 01:30:27;;;;;;;13.82;6.95;;;5.60;99.90;;;6.40;100.00;101486.50;5061137;28;20055;-84
2021/11/09 01:32:54;;;;;;;32.55;7.07;;;5.50;99.90;;;6.19;100.00;101491.66;5061041;28;20039;-85
2021/11/09 01:35:21;;;;;;;22.52;6.95;;;5.30;99.90;;;6.11;100.00;101478.50;5071623;28;20037;-82
2021/11/09 01:37:49;;;;;;;37.58;7.95;;;5.30;99.90;;;6.15;100.00;101480.34;5076143;28;20052;-84
2021/11/09 01:40:19;;;;;;;30.08;8.85;;;5.30;99.90;;;6.20;100.00;101482.19;5073975;28;20102;-85
2021/11/09 01:42:45;;;;;;;35.17;8.65;;;5.40;99.90;;;6.29;100.00;101481.16;5061613;28;20057;-85
2021/11/09 01:45:14;;;;;;;34.28;11.20;;;5.50;99.90;;;6.53;100.00;101480.94;5061012;28;20021;-86
2021/11/09 01:47:45;;;;;;;35.55;10.32;;;5.70;99.90;;;6.71;100.00;101476.41;5061324;28;20028;-87
2021/11/09 01:50:20;;;;;;;39.10;11.10;;;5.80;99.90;;;6.83;100.00;101476.66;5062457;28;20035;-84
2021/11/09 01:52:46;;;;;;;26.52;8.93;;;5.90;99.90;;;6.87;100.00;101480.47;5070893;28;20042;-80
2021/11/09 01:55:20;;;;;;;33.45;9.40;;;6.00;99.90;;;6.90;100.00;101463.16;5075640;28;20025;-82
2021/11/09 01:57:47;;;;;;;31.67;9.23;;;6.10;99.90;;;6.92;100.00;101469.22;5058199;28;20045;-80
2021/11/09 02:00:25;;;;;;;37.97;10.30;;;6.10;99.90;;;6.94;100.00;101463.34;5073716;28;20029;-82
2021/11/09 02:02:53;;;;;;;33.00;10.80;;;6.10;99.90;;;6.87;100.00;101463.81;5063105;28;20075;-84
2021/11/09 02:05:21;;;;;;;30.23;8.63;;;6.10;99.90;;;6.93;100.00;101464.50;5046575;28;20049;-85
2021/11/09 02:07:55;;;;;;;31.90;9.23;;;6.00;99.90;;;6.89;100.00;101472.63;5063194;28;20029;-85
2021/11/09 02:10:29;;;;;;;37.88;10.20;;;6.00;99.90;;;6.87;100.00;101477.69;5084878;28;20086;-83
2021/11/09 02:12:56;;;;;;;23.23;7.68;;;6.00;99.90;;;6.86;100.00;101476.84;5084269;28;20090;-85
2021/11/09 02:15:23;;;;;;;34.42;8.90;;;5.90;99.90;;;6.73;100.00;101472.16;5064841;28;20074;-84
2021/11/09 02:17:51;;;;;;;28.75;7.85;;;5.90;99.90;;;6.67;100.00;101478.97;5063720;28;20024;-86
2021/11/09 02:20:22;;;;;;;28.30;9.55;;;5.80;99.90;;;6.65;100.00;101484.00;5080656;28;20029;-86
2021/11/09 02:22:50;;;;;;;28.88;8.27;;;5.80;99.90;;;6.67;100.00;101492.84;5062250;28;20050;-84
2021/11/09 02:25:22;;;;;;;26.75;8.38;;;5.80;99.90;;;6.64;100.00;101493.47;5080049;28;20051;-82
2021/11/09 02:27:48;;;;;;;24.83;8.75;;;5.70;99.90;;;6.52;100.00;101492.38;5079997;28;20036;-82
2021/11/09 02:30:23;;;;;;;19.75;7.22;;;5.60;99.90;;;6.39;100.00;101501.53;5064606;28;20055;-83
2021/11/09 02:32:51;;;;;;;29.03;8.37;;;5.50;99.90;;;6.31;100.00;101495.56;5082363;28;20028;-83
2021/11/09 02:35:18;;;;;;;25.73;8.30;;;5.40;99.90;;;6.26;100.00;101495.66;5084046;28;20286;-85
2021/11/09 02:37:44;;;;;;;26.88;7.85;;;5.40;99.90;;;6.12;100.00;101489.31;5063667;28;20029;-85
2021/11/09 02:40:12;;;;;;;22.80;7.82;;;5.20;99.90;;;6.00;100.00;101479.84;5062523;28;20043;-85
2021/11/09 02:42:47;;;;;;;25.67;8.10;;;5.10;99.90;;;5.89;100.00;101492.25;5080396;28;20032;-84
2021/11/09 02:45:25;;;;;;;26.38;7.80;;;5.00;99.90;;;5.83;100.00;101495.09;5061854;28;20112;-85
2021/11/09 02:48:03;;;;;;;28.42;9.07;;;5.00;99.90;;;5.88;100.00;101485.06;5061987;28;20060;-84
2021/11/09 02:50:35;;;;;;;29.52;9.90;;;5.00;99.90;;;5.94;100.00;101500.50;5061616;28;20119;-85
2021/11/09 02:55:33;;;;;;;30.33;8.80;;;5.00;99.90;;;5.91;100.00;101503.88;5088624;28;20119;-84
2021/11/09 02:58:12;;;;;;;21.42;8.48;;;5.00;99.90;;;5.88;100.00;101507.22;5072386;28;20033;-81
2021/11/09 03:00:56;;;;;;;25.42;8.82;;;4.90;99.90;;;5.79;100.00;101507.91;5072260;28;20032;-81
2021/11/09 03:04:05;;;;;;;37.15;8.73;;;4.90;99.90;;;5.72;100.00;101509.44;5069667;28;20021;-84
2021/11/09 03:08:52;;;;;;;21.63;8.23;;;4.80;99.90;;;5.67;100.00;101513.16;5079344;28;20025;-83
2021/11/09 03:11:19;;;;;;;22.77;8.93;;;4.80;99.90;;;5.69;100.00;101512.81;5048090;28;20028;-83
2021/11/09 03:13:48;;;;;;;27.20;9.80;;;4.80;99.90;;;5.70;100.00;101506.16;5045176;28;20059;-84
2021/11/09 03:16:15;;;;;;;26.42;8.18;;;4.80;99.90;;;5.55;100.00;101501.72;5074334;28;20059;-83
2021/11/09 03:19:02;;;;;;;23.83;7.55;;;4.70;99.90;;;5.40;100.00;101507.50;5056136;28;20041;-84
2021/11/09 03:46:59;;;;;;;33.05;11.02;;;4.80;99.90;;;5.79;100.00;101524.56;5065963;28;20032;-84
2021/11/09 03:49:29;;;;;;;33.42;9.75;;;4.90;99.90;;;5.77;100.00;101523.22;5048723;28;20040;-84
2021/11/09 03:52:01;;;;;;;29.80;11.73;;;4.90;99.90;;;5.75;100.00;101525.47;5067499;28;20025;-85
2021/11/09 03:54:27;;;;;;;37.63;13.50;;;4.90;99.90;;;5.76;100.00;101527.13;5048720;28;20036;-82
2021/11/09 03:57:05;;;;;;;32.78;10.95;;;4.90;99.90;;;5.80;100.00;101528.16;5066918;28;20074;-85
2021/11/09 04:04:53;;;;;;;30.00;10.38;;;4.90;99.90;;;5.83;100.00;101535.88;5066979;28;20025;-82
2021/11/09 04:07:29;;;;;;;36.55;11.88;;;4.90;99.90;;;5.79;100.00;101523.72;5062014;28;20032;-85
2021/11/09 04:10:06;;;;;;;35.53;11.45;;;4.90;99.90;;;5.78;100.00;101533.16;5041547;28;20427;-87
2021/11/09 04:17:58;;;;;;;38.03;13.00;;;4.90;99.90;;;5.71;100.00;101530.81;5060476;28;20036;-84
2021/11/09 04:53:03;;;;;;;37.97;11.30;;;5.20;99.90;;;6.03;100.00;101540.25;5059827;28;20087;-86
2021/11/09 05:09:21;;;;;;;39.65;11.63;;;4.80;99.90;;;5.64;100.00;101543.41;5070025;28;20102;-85
2021/11/09 05:11:47;;;;;;;31.90;11.88;;;4.80;99.90;;;5.64;100.00;101535.94;5079724;28;20024;-84
2021/11/09 05:14:15;;;;;;;33.97;11.63;;;4.80;99.90;;;5.62;100.00;101545.69;5060710;28;20035;-84
2021/11/09 05:16:43;;;;;;;33.42;11.40;;;4.80;99.90;;;5.61;100.00;101549.56;5061082;28;20207;-86
2021/11/09 05:19:10;;;;;;;33.47;11.10;;;4.80;99.90;;;5.58;100.00;101542.69;5079687;28;20028;-86
2021/11/09 05:21:40;;;;;;;44.17;14.93;;;4.70;99.90;;;5.62;100.00;101548.44;5063281;28;20070;-87
2021/11/09 05:24:08;;;;;;;37.30;14.90;;;4.80;99.90;;;5.75;100.00;101550.41;5086988;28;20028;-86
2021/11/09 05:26:38;;;;;;;46.47;16.20;;;4.90;99.90;;;5.86;100.00;101551.09;5069252;28;20028;-85
2021/11/09 05:29:05;;;;;;;35.13;14.05;;;5.00;99.90;;;5.93;100.00;101548.75;5062079;28;20115;-86
2021/11/09 05:31:32;;;;;;;45.35;14.27;;;5.10;99.90;;;5.93;100.00;101552.34;5062435;28;20035;-86
2021/11/09 05:33:58;;;;;;;40.35;14.93;;;5.10;99.90;;;6.00;100.00;101543.63;5081020;28;20044;-85
2021/11/09 05:36:32;;;;;;;41.75;13.38;;;5.20;99.90;;;6.07;100.00;101557.94;5077389;28;20025;-86
2021/11/09 05:39:15;;;;;;;55.25;14.45;;;5.20;99.90;;;6.10;100.00;101562.84;5079338;28;20020;-85
2021/11/09 05:41:43;;;;;;;40.13;13.63;;;5.30;99.90;;;6.13;100.00;101565.03;5081447;28;20103;-85
2021/11/09 05:44:10;;;;;;;47.70;15.73;;;5.30;99.90;;;6.11;100.00;101567.25;5082094;28;20027;-84
2021/11/09 05:46:40;;;;;;;34.97;12.77;;;5.30;99.90;;;6.10;100.00;101569.19;5082435;28;20469;-85
2021/11/09 05:49:07;;;;;;;44.67;14.00;;;5.30;99.90;;;6.12;100.00;101566.97;5082974;28;20024;-87
2021/11/09 05:51:35;;;;;;;42.40;14.57;;;5.30;99.90;;;6.16;100.00;101567.19;5081293;28;20060;-86
2021/11/09 05:54:04;;;;;;;35.25;12.68;;;5.30;99.90;;;6.10;100.00;101569.19;5064845;28;20216;-84
2021/11/09 05:56:30;;;;;;;36.60;11.52;;;5.20;99.90;;;5.91;100.00;101567.66;5066135;28;20028;-86
2021/11/09 05:58:58;;;;;;;28.60;10.15;;;5.10;99.90;;;5.77;100.00;101570.34;5061068;28;20131;-83
2021/11/09 06:01:25;;;;;;;30.63;10.63;;;4.90;99.90;;;5.56;100.00;101569.03;5060473;28;20312;-83
2021/11/09 06:03:52;;;;;;;24.27;9.95;;;4.70;99.90;;;5.43;100.00;101573.41;5060682;28;20036;-84
2021/11/09 06:06:18;;;;;;;22.67;9.80;;;4.60;99.90;;;5.31;100.00;101568.34;5060088;28;20067;-83
2021/11/09 06:08:46;;;;;;;25.98;10.40;;;4.50;99.90;;;5.26;100.00;101575.91;5078781;28;20032;-84
2021/11/09 06:11:12;;;;;;;32.35;10.23;;;4.40;99.90;;;5.23;100.00;101568.19;5081595;28;20356;-84
2021/11/09 06:13:38;;;;;;;33.63;12.02;;;4.40;99.90;;;5.22;100.00;101578.44;5079728;28;20032;-85
2021/11/09 06:16:04;;;;;;;25.88;11.43;;;4.30;99.90;;;5.22;100.00;101580.38;5061718;28;20028;-87
2021/11/09 06:18:30;;;;;;;26.45;10.90;;;4.40;99.90;;;5.22;100.00;101588.69;5061090;28;20504;-87
2021/11/09 06:20:56;;;;;;;32.38;11.93;;;4.40;99.90;;;5.23;100.00;101587.59;5061533;28;20033;-85
2021/11/09 06:23:23;;;;;;;38.83;12.40;;;4.30;99.90;;;5.21;100.00;101587.88;5061771;28;20044;-84
2021/11/09 06:25:49;;;;;;;38.08;11.15;;;4.30;99.90;;;5.21;100.00;101589.81;5064498;28;20025;-86
2021/11/09 06:28:20;;;;;;;40.65;12.57;;;4.40;99.90;;;5.23;100.00;101595.91;5079924;28;20025;-84
2021/11/09 06:30:49;;;;;;;33.17;11.90;;;4.40;99.90;;;5.29;100.00;101597.47;5060577;28;20109;-82
2021/11/09 06:33:16;;;;;;;41.58;13.60;;;4.40;99.90;;;5.31;100.00;101596.03;5078253;28;20028;-87
2021/11/09 06:35:43;;;;;;;32.17;12.25;;;4.40;99.90;;;5.36;100.00;101603.47;5061150;28;20032;-86
2021/11/09 06:38:10;;;;;;;37.63;12.85;;;4.50;99.90;;;5.38;100.00;101594.81;5061198;28;20028;-85
2021/11/09 06:40:38;;;;;;;32.88;11.50;;;4.50;99.90;;;5.37;100.00;101602.31;5062392;28;20083;-84
2021/11/09 06:43:07;;;;;;;33.92;12.77;;;4.50;99.90;;;5.40;100.00;101601.72;5060906;28;20418;-85
2021/11/09 06:45:35;;;;;;;41.53;13.93;;;4.50;99.90;;;5.41;100.00;101608.06;5079302;28;20032;-86
2021/11/09 06:48:02;;;;;;;32.70;12.75;;;4.60;99.90;;;5.45;100.00;101601.66;5061530;28;20025;-86
2021/11/09 06:50:28;;;;;;;38.28;14.77;;;4.60;99.90;;;5.48;100.00;101603.81;5077818;28;20028;-85
2021/11/09 06:52:55;;;;;;;34.53;11.85;;;4.60;99.90;;;5.58;100.00;101605.59;5079351;28;20113;-84
2021/11/09 06:55:21;;;;;;;39.45;12.27;;;4.70;99.90;;;5.61;100.00;101605.81;5078918;28;20024;-86
2021/11/09 06:57:46;;;;;;;39.45;12.88;;;4.70;99.90;;;5.65;100.00;101608.81;5080216;28;20062;-85
2021/11/09 07:00:19;;;;;;;37.58;13.60;;;4.80;99.90;;;5.76;100.00;101610.28;5079926;28;20028;-87
2021/11/09 07:02:46;;;;;;;42.40;13.90;;;4.90;99.90;;;5.88;100.00;101615.38;5080602;28;20167;-85
2021/11/09 07:05:13;;;;;;;39.58;13.13;;;5.00;99.90;;;5.94;100.00;101616.94;5062004;28;20028;-88
2021/11/09 07:07:42;;;;;;;39.30;14.38;;;5.00;99.90;;;5.97;100.00;101621.88;5080205;28;20111;-85
2021/11/09 07:10:10;;;;;;;36.92;13.38;;;5.00;99.90;;;6.02;100.00;101617.06;5062817;28;20028;-88
2021/11/09 07:12:38;;;;;;;41.33;12.63;;;5.10;99.90;;;6.16;100.00;101623.47;5094460;28;20017;-82
2021/11/09 07:15:06;;;;;;;30.63;12.20;;;5.20;99.90;;;6.29;100.00;101619.88;5078287;28;20024;-82
2021/11/09 07:17:33;;;;;;;38.35;13.60;;;5.30;99.90;;;6.47;100.00;101629.28;5073468;28;20040;-87
2021/11/09 07:20:00;;;;;;;32.42;12.32;;;5.40;99.90;;;6.72;100.00;101633.50;5080122;28;20029;-86
2021/11/09 07:22:26;;;;;;;30.42;11.98;;;5.60;99.90;;;6.86;100.00;101635.16;5062699;28;20080;-86
2021/11/09 07:24:52;;;;;;;26.60;10.98;;;5.70;99.90;;;7.00;100.00;101631.53;5064832;28;20036;-80
2021/11/09 07:27:19;;;;;;;28.88;11.02;;;5.80;99.90;;;7.07;100.00;101637.47;5077411;28;20095;-85
2021/11/09 07:29:50;;;;;;;35.53;10.35;;;5.90;99.90;;;7.17;100.00;101637.25;5073774;28;20020;-82
2021/11/09 07:32:18;;;;;;;35.33;10.07;;;6.10;99.90;;;7.41;100.00;101640.63;5077201;28;20024;-82
2021/11/09 07:34:45;;;;;;;25.23;9.85;;;6.30;99.90;;;7.51;100.00;101642.34;5078077;28;20028;-84
2021/11/09 07:37:11;;;;;;;28.00;9.70;;;6.50;99.90;;;7.69;100.00;101650.50;5078223;28;20041;-82
2021/11/09 07:39:37;;;;;;;37.33;9.50;;;6.60;99.90;;;7.73;100.00;101651.53;5069556;28;20044;-87
2021/11/09 07:42:04;;;;;;;21.13;8.13;;;6.90;99.90;;;7.96;100.00;101647.59;5059940;28;20319;-85
2021/11/09 07:44:31;;;;;;;31.58;8.63;;;7.00;99.90;;;8.03;100.00;101658.28;5059501;28;20032;-87
2021/11/09 07:46:57;;;;;;;24.80;8.05;;;7.20;99.90;;;8.14;99.10;101642.97;5059666;28;20115;-86
2021/11/09 07:49:24;;;;;;;22.90;8.43;;;7.20;99.90;;;8.18;98.50;101652.34;5059332;28;20055;-86
2021/11/09 07:51:50;;;;;;;22.55;7.97;;;7.30;99.90;;;8.28;98.13;101652.09;5060069;28;20507;-86
2021/11/09 07:54:19;;;;;;;21.48;8.07;;;7.30;99.90;;;8.40;97.14;101649.56;5060682;28;20054;-83
2021/11/09 07:56:45;;;;;;;21.58;7.80;;;7.60;99.90;;;8.67;94.67;101658.88;5062778;28;20046;-85
2021/11/09 08:01:59;;;;;;;19.95;7.78;;;7.90;99.90;;;8.82;93.06;101642.53;5080574;28;20036;-84
2021/11/09 08:04:36;;;;;;;23.05;8.23;;;8.00;99.90;;;8.79;92.74;101661.84;5079398;28;20025;-86
2021/11/09 08:07:07;;;;;;;20.30;7.32;;;8.10;99.90;;;9.07;91.92;101657.69;5062445;28;20036;-85
2021/11/09 08:09:33;;;;;;;20.00;7.32;;;8.20;99.90;;;9.14;90.31;101658.03;5062014;28;20051;-87
2021/11/09 08:12:04;;;;;;;18.13;7.63;;;8.30;99.90;;;9.26;89.92;101654.59;5062555;28;20488;-85
2021/11/09 08:14:31;;;;;;;27.77;6.97;;;8.50;99.90;;;9.48;89.17;101660.88;5079869;28;20074;-84
2021/11/09 08:16:57;;;;;;;22.00;7.13;;;8.70;99.90;;;9.63;86.93;101650.41;5064040;28;20024;-85
2021/11/09 08:19:23;;;;;;;21.85;6.18;;;8.80;99.90;;;9.69;86.89;101649.91;5081667;28;20090;-85
2021/11/09 08:21:54;;;;;;;21.42;5.95;;;8.90;99.90;;;10.14;85.07;101653.19;5082076;28;20020;-86
2021/11/09 08:24:23;;;;;;;23.98;7.20;;;9.10;99.90;;;10.20;84.76;101651.03;5066312;28;20040;-87
2021/11/09 08:26:52;;;;;;;21.10;7.03;;;9.20;99.90;;;10.29;84.37;101654.63;5082409;28;20211;-86
2021/11/09 08:29:23;;;;;;;15.35;5.32;;;9.40;99.90;;;10.34;82.13;101641.31;5080949;28;20025;-86
2021/11/09 08:31:49;;;;;;;22.38;7.28;;;9.50;99.90;;;10.49;82.67;101643.59;5064558;28;20027;-84
2021/11/09 08:34:15;;;;;;;21.15;6.00;;;9.60;99.90;;;10.53;81.90;101643.75;5063296;28;20025;-86
2021/11/09 08:36:44;;;;;;;22.27;5.53;;;9.70;99.90;;;10.60;79.79;101646.81;5082170;28;20025;-86
2021/11/09 08:39:20;;;;;;;14.70;6.20;;;9.80;99.90;;;10.63;80.30;101646.13;5083946;28;20038;-88
2021/11/09 08:45:11;;;;;;;17.52;5.75;;;10.00;99.90;;;10.90;79.32;101647.69;5044328;28;20107;-84
2021/11/09 08:47:37;;;;;;;13.85;5.20;;;10.10;99.90;;;11.02;77.11;101658.94;5083283;28;20040;-87
2021/11/09 08:50:05;;;;;;;14.57;6.05;;;10.20;99.90;;;11.45;76.96;101655.91;5066342;28;20033;-87
2021/11/09 08:52:33;;;;;;;15.27;5.60;;;10.50;99.90;;;11.55;76.32;101661.94;5086983;28;20032;-86
2021/11/09 08:58:02;;;;;;;14.30;5.10;;;10.70;99.90;;;11.67;74.53;101666.78;5081662;28;20039;-84
2021/11/09 09:05:59;;;;;;;16.85;3.95;;;11.10;99.90;;;12.05;71.99;101667.47;5078290;28;20035;-86
2021/11/09 09:08:25;;;;;;;15.93;4.90;;;11.10;99.90;;;12.46;72.31;101666.53;5078704;28;20016;-85
2021/11/09 09:10:51;;;;;;;10.18;3.95;;;11.30;99.90;;;12.08;69.71;101658.38;5061341;28;20466;-84
2021/11/09 09:13:17;;;;;;;15.18;4.72;;;11.20;99.90;;;12.15;71.18;101664.25;5078703;28;20028;-86
2021/11/09 09:15:43;;;;;;;13.57;3.47;;;11.30;99.90;;;12.48;67.60;101660.59;5059414;28;20155;-88
2021/11/09 09:18:10;;;;;;;14.05;3.35;;;11.40;99.90;;;12.69;66.90;101667.75;5078032;28;20028;-87
2021/11/09 09:23:10;;;;;;;10.35;3.70;;;11.80;99.90;;;12.98;66.80;101661.13;5078726;28;20028;-84
2021/11/09 09:31:42;;;;;;;7.82;2.90;;;12.20;99.90;;;13.48;63.14;101662.78;5080976;28;20090;-85
2021/11/09 09:56:07;;;;;;;7.43;2.10;;;13.70;99.90;;;14.78;54.72;101691.88;5078278;28;20050;-85
2021/11/09 09:58:34;;;;;;;9.33;2.40;;;13.60;99.90;;;14.76;55.52;101687.81;5070208;28;20033;-87
2021/11/09 10:01:00;;;;;;;10.63;1.98;;;13.60;99.90;;;14.79;55.22;101692.69;5093074;28;20294;-84
2021/11/09 10:03:41;;;;;;;8.35;2.45;;;13.60;99.90;;;15.00;55.96;101693.25;5074731;28;20032;-86
2021/11/09 10:06:08;;;;;;;8.57;2.50;;;13.70;99.90;;;15.39;54.34;101694.22;5074683;28;20024;-85
2021/11/09 10:08:55;;;;;;;4.72;2.00;;;13.90;99.90;;;15.64;53.10;101694.81;5060366;28;20028;-85
2021/11/09 10:11:32;;;;;;;8.00;1.85;;;14.10;98.80;;;15.70;52.74;101693.38;5061820;28;20054;-82
2021/11/09 10:14:01;;;;;;;8.10;1.95;;;14.20;97.00;;;15.18;54.58;101688.91;5078325;28;20039;-86
2021/11/09 10:16:29;;;;;;;5.40;2.20;;;14.00;98.50;;;15.03;53.97;101683.25;5058083;28;20025;-86
2021/11/09 10:18:55;;;;;;;10.13;2.28;;;14.00;96.90;;;15.14;53.91;101685.16;5059207;28;20029;-85
2021/11/09 10:21:35;;;;;;;9.52;2.10;;;13.90;97.60;;;15.34;52.88;101688.06;5060115;28;20035;-87
2021/11/09 10:24:02;;;;;;;7.40;2.33;;;13.90;94.90;;;14.81;53.23;101681.91;5077724;28;20056;-86
2021/11/09 10:26:35;;;;;;;6.13;1.95;;;13.80;94.90;;;14.74;53.94;101695.75;5060358;28;20024;-85
2021/11/09 10:29:08;;;;;;;9.00;2.33;;;13.70;96.30;;;14.95;53.32;101689.91;5061323;28;20055;-85
2021/11/09 10:31:42;;;;;;;8.18;2.00;;;13.80;96.20;;;15.26;53.05;101687.88;5061139;28;20028;-83
2021/11/09 10:34:29;;;;;;;4.80;1.92;;;14.00;95.90;;;15.71;52.25;101686.53;5079394;28;20032;-83
2021/11/09 10:37:23;;;;;;;6.05;2.25;;;14.20;95.90;;;15.41;50.13;101688.22;5061814;28;20036;-86
2021/11/09 10:39:55;;;;;;;11.75;2.30;;;14.30;90.00;;;15.18;51.44;101688.91;5061801;28;20087;-85
2021/11/09 10:42:27;;;;;;;5.85;2.17;;;14.30;91.30;;;15.60;50.99;101683.50;5061309;28;20028;-87
2021/11/09 10:45:11;;;;;;;6.72;1.80;;;14.40;92.10;;;15.80;51.01;101687.97;5060800;28;20028;-85
2021/11/09 10:47:49;;;;;;;7.10;2.05;;;14.50;93.10;;;15.75;50.71;101691.09;5061195;28;20024;-86
2021/11/09 10:50:35;;;;;;;5.93;1.85;;;14.40;91.80;;;15.82;50.98;101679.97;5061685;28;20033;-87
2021/11/09 10:53:11;;;;;;;4.90;1.75;;;14.50;91.90;;;15.69;50.04;101688.91;5061575;28;20036;-85
2021/11/09 10:55:49;;;;;;;4.03;1.48;;;14.50;89.40;;;15.74;49.83;101692.25;5060746;28;20033;-86
2021/11/09 11:04:00;;;;;;;4.40;1.52;;;14.60;88.60;;;16.03;49.82;101667.50;5079789;28;20028;-86
2021/11/09 11:06:30;;;;;;;8.77;2.00;;;14.70;88.90;;;15.98;49.23;101670.63;5061401;28;20024;-86
2021/11/09 11:09:12;;;;;;;5.22;2.08;;;14.80;87.30;;;15.88;49.24;101669.22;5061424;28;20028;-86
2021/11/09 11:11:52;;;;;;;6.90;1.65;;;14.70;85.70;;;15.52;49.91;101676.06;5079958;28;20025;-86
2021/11/09 11:14:21;;;;;;;3.47;1.10;;;14.50;85.90;;;14.98;51.12;101666.66;5080100;28;20028;-85
2021/11/09 11:17:02;;;;;;;4.63;1.40;;;14.20;86.60;;;14.97;50.11;101665.84;5063006;28;20056;-84
2021/11/09 11:19:43;;;;;;;5.53;1.80;;;14.10;85.40;;;14.97;50.82;101662.19;5061066;28;20043;-84
2021/11/09 11:22:24;;;;;;;4.95;1.63;;;14.00;87.40;;;15.26;50.14;101665.38;5062138;28;20119;-85
2021/11/09 11:24:56;;;;;;;4.72;1.50;;;14.10;86.80;;;14.96;50.84;101661.38;5062354;28;20025;-88
2021/11/09 11:27:27;;;;;;;8.20;1.60;;;14.10;88.00;;;14.95;51.08;101656.13;5064187;28;20029;-86
2021/11/09 11:29:57;;;;;;;4.78;1.30;;;14.00;87.80;;;15.24;49.89;101664.91;5069550;28;20046;-84
2021/11/09 11:32:25;;;;;;;3.80;1.45;;;14.20;86.60;;;15.30;49.72;101662.63;5080131;28;20511;-86
2021/11/09 11:34:53;;;;;;;5.53;1.92;;;14.20;86.60;;;15.36;49.69;101663.97;5089887;28;20092;-85
2021/11/09 11:37:23;;;;;;;5.68;1.58;;;14.20;85.90;;;15.25;49.81;101663.72;5077458;28;20040;-85
2021/11/09 11:39:56;;;;;;;3.90;1.58;;;14.20;85.90;;;15.52;49.13;101661.97;5081338;28;20024;-86
2021/11/09 11:42:22;;;;;;;6.28;1.52;;;14.30;85.70;;;15.27;50.78;101660.56;5063303;28;20033;-84
2021/11/09 11:45:01;;;;;;;7.75;1.70;;;14.20;87.80;;;15.52;49.38;101647.06;5066073;28;20029;-86
2021/11/09 11:47:29;;;;;;;7.00;1.67;;;14.30;85.50;;;15.52;49.53;101652.72;5083992;28;20031;-85
2021/11/09 11:50:06;;;;;;;6.38;1.50;;;14.40;85.00;;;15.03;49.93;101636.25;5083898;28;20191;-87
2021/11/09 11:52:52;;;;;;;6.97;1.67;;;14.20;84.10;;;15.55;49.73;101637.91;5066754;28;20132;-88
2021/11/09 11:55:27;;;;;;;4.38;1.48;;;14.30;85.80;;;15.58;49.30;101637.16;5082515;28;20067;-86
2021/11/09 11:58:10;;;;;;;4.40;1.90;;;14.40;85.50;;;15.82;48.60;101634.09;5065812;28;20024;-86
2021/11/09 12:00:56;;;;;;;5.95;1.83;;;14.50;85.10;;;16.08;49.69;101631.41;5084007;28;20483;-86
2021/11/09 12:03:22;;;;;;;4.93;1.40;;;14.70;87.30;;;16.14;48.79;101621.47;5082674;28;20039;-84
2021/11/09 12:05:59;;;;;;;5.70;1.52;;;14.80;84.70;;;16.27;47.96;101622.94;5081717;28;20040;-86
2021/11/09 12:08:50;;;;;;;6.20;1.55;;;14.90;82.90;;;15.92;48.18;101621.41;5065122;28;20051;-84
2021/11/09 12:11:26;;;;;;;5.38;1.30;;;14.70;81.70;;;15.86;47.89;101623.69;5081907;28;20109;-85
2021/11/09 12:14:07;;;;;;;8.48;1.70;;;14.60;81.00;;;15.92;48.38;101613.78;5064235;28;20028;-85
2021/11/09 12:16:52;;;;;;;4.38;1.45;;;14.70;82.70;;;15.80;50.15;101616.72;5062490;28;20114;-84
2021/11/09 12:19:40;;;;;;;2.97;1.48;;;14.60;85.50;;;15.72;48.73;101614.94;5079462;28;20497;-85
2021/11/09 12:22:14;;;;;;;4.55;1.30;;;14.60;82.70;;;15.75;49.22;101606.56;5063901;28;20021;-86
2021/11/09 12:24:58;;;;;;;8.80;2.00;;;14.60;84.40;;;15.91;49.11;101606.50;5063811;28;20449;-85
2021/11/09 12:27:52;;;;;;;2.50;1.23;;;14.60;85.30;;;15.92;49.17;101599.69;5080572;28;20400;-88
2021/11/09 12:30:52;;;;;;;6.15;1.42;;;14.60;84.40;;;15.91;47.41;101603.69;5073663;28;20036;-86
2021/11/09 12:33:38;;;;;;;5.20;1.60;;;14.60;81.70;;;15.50;49.67;101593.16;5064589;28;20024;-86
2021/11/09 12:36:05;;;;;;;8.48;2.17;;;14.50;83.90;;;15.72;49.71;101593.22;5063001;28;20028;-86
2021/11/09 12:38:46;;;;;;;5.60;1.85;;;14.60;86.00;;;15.90;49.85;101592.78;5062919;28;20029;-85
2021/11/09 12:41:22;;;;;;;6.22;1.45;;;14.60;86.50;;;15.63;48.57;101589.81;5062647;28;20035;-85
2021/11/09 12:44:01;;;;;;;5.60;1.60;;;14.60;82.70;;;15.75;48.96;101583.22;5062876;28;20404;-86